createdAt,value
2017-07-30T00:00:39.891Z,18.90
2017-07-30T00:03:07.383Z,18.90
2017-07-30T00:05:34.824Z,18.90
2017-07-30T00:08:02.290Z,18.90
2017-07-30T00:10:29.745Z,18.80
2017-07-30T00:12:57.202Z,18.80
2017-07-30T00:15:24.655Z,18.70
2017-07-30T00:17:52.109Z,18.70
2017-07-30T00:20:19.672Z,18.70
2017-07-30T00:22:47.237Z,18.70
2017-07-30T00:25:14.793Z,18.70
2017-07-30T00:27:42.253Z,18.70
2017-07-30T00:30:09.705Z,18.70
2017-07-30T00:32:37.183Z,18.80
2017-07-30T00:35:04.717Z,18.80
2017-07-30T00:37:32.277Z,18.80
2017-07-30T00:39:59.837Z,18.90
2017-07-30T00:42:27.293Z,18.90
2017-07-30T00:44:54.853Z,18.80
2017-07-30T00:47:22.309Z,18.80
2017-07-30T00:49:49.765Z,18.80
2017-07-30T00:52:17.222Z,18.70
2017-07-30T00:54:44.684Z,18.70
2017-07-30T00:57:12.147Z,18.70
2017-07-30T00:59:39.688Z,18.70
2017-07-30T01:02:07.146Z,18.80
2017-07-30T01:04:34.722Z,18.70
2017-07-30T01:07:02.165Z,18.60
2017-07-30T01:09:29.629Z,18.50
2017-07-30T01:11:57.085Z,18.50
2017-07-30T01:14:24.542Z,18.50
2017-07-30T01:16:52.085Z,18.50
2017-07-30T01:19:19.558Z,18.50
2017-07-30T01:21:47.019Z,18.50
2017-07-30T01:24:14.470Z,18.50
2017-07-30T01:26:41.925Z,18.50
2017-07-30T01:29:09.491Z,18.50
2017-07-30T01:31:36.944Z,18.50
2017-07-30T01:34:04.402Z,18.50
2017-07-30T01:36:33.366Z,18.70
2017-07-30T01:39:00.837Z,18.70
2017-07-30T01:41:28.300Z,18.60
2017-07-30T01:43:55.770Z,18.60
2017-07-30T01:46:23.318Z,18.70
2017-07-30T01:48:50.775Z,18.70
2017-07-30T01:51:18.238Z,18.80
2017-07-30T01:53:45.685Z,19.00
2017-07-30T01:56:13.145Z,19.10
2017-07-30T01:58:40.605Z,19.20
2017-07-30T02:01:08.055Z,19.30
2017-07-30T02:03:35.511Z,19.40
2017-07-30T02:06:02.976Z,19.50
2017-07-30T02:08:30.430Z,19.50
2017-07-30T02:10:57.986Z,19.40
2017-07-30T02:13:25.433Z,19.40
2017-07-30T02:15:52.885Z,19.40
2017-07-30T02:18:20.337Z,19.40
2017-07-30T02:20:47.761Z,19.50
2017-07-30T02:23:15.249Z,19.60
2017-07-30T02:25:42.818Z,19.70
2017-07-30T02:28:10.274Z,19.70
2017-07-30T02:30:37.731Z,19.80
2017-07-30T02:33:05.289Z,19.80
2017-07-30T02:35:32.741Z,20.00
2017-07-30T02:38:00.198Z,20.20
2017-07-30T02:40:27.654Z,20.20
2017-07-30T02:42:55.213Z,20.20
2017-07-30T02:45:22.765Z,20.30
2017-07-30T02:47:50.225Z,20.40
2017-07-30T02:50:17.693Z,20.40
2017-07-30T02:52:45.150Z,20.30
2017-07-30T02:55:12.605Z,20.20
2017-07-30T02:57:40.056Z,19.90
2017-07-30T03:00:07.507Z,19.70
2017-07-30T03:02:34.954Z,19.50
2017-07-30T03:05:02.409Z,19.40
2017-07-30T03:07:29.867Z,19.40
2017-07-30T03:09:57.322Z,19.40
2017-07-30T03:12:24.783Z,19.40
2017-07-30T03:14:52.232Z,19.40
2017-07-30T03:17:19.705Z,19.40
2017-07-30T03:19:47.173Z,19.40
2017-07-30T03:22:14.615Z,19.40
2017-07-30T03:24:42.077Z,19.50
2017-07-30T03:27:09.638Z,19.50
2017-07-30T03:29:37.113Z,19.60
2017-07-30T03:32:04.562Z,19.60
2017-07-30T03:34:32.015Z,19.60
2017-07-30T03:36:59.469Z,19.60
2017-07-30T03:39:26.922Z,19.60
2017-07-30T03:41:54.381Z,19.70
2017-07-30T03:44:21.821Z,19.60
2017-07-30T03:46:49.282Z,19.70
2017-07-30T03:49:16.841Z,19.70
2017-07-30T03:51:44.408Z,19.60
2017-07-30T03:54:11.855Z,19.60
2017-07-30T03:56:39.330Z,19.60
2017-07-30T03:59:06.790Z,19.50
2017-07-30T04:01:34.329Z,19.50
2017-07-30T04:04:01.803Z,19.40
2017-07-30T04:06:29.341Z,19.30
2017-07-30T04:08:56.797Z,19.30
2017-07-30T04:11:24.253Z,19.30
2017-07-30T04:13:51.819Z,19.30
2017-07-30T04:16:19.277Z,19.30
2017-07-30T04:18:46.717Z,19.40
2017-07-30T04:21:14.166Z,19.50
2017-07-30T04:23:41.646Z,19.50
2017-07-30T04:26:09.102Z,19.60
2017-07-30T04:28:36.662Z,19.50
2017-07-30T04:31:04.105Z,19.60
2017-07-30T04:33:31.566Z,19.70
2017-07-30T04:35:59.020Z,19.80
2017-07-30T04:38:26.582Z,19.80
2017-07-30T04:40:54.038Z,20.00
2017-07-30T04:43:21.597Z,20.00
2017-07-30T04:45:49.046Z,20.00
2017-07-30T04:48:16.494Z,20.10
2017-07-30T04:50:43.973Z,20.40
2017-07-30T04:53:11.522Z,20.40
2017-07-30T04:55:38.965Z,20.60
2017-07-30T04:58:06.538Z,20.50
2017-07-30T05:00:34.449Z,20.50
2017-07-30T05:03:09.506Z,20.60
2017-07-30T05:05:36.941Z,20.70
2017-07-30T05:08:04.386Z,20.80
2017-07-30T05:10:32.610Z,21.00
2017-07-30T05:13:00.062Z,21.10
2017-07-30T05:15:27.510Z,21.20
2017-07-30T05:17:54.971Z,21.20
2017-07-30T05:20:22.421Z,21.30
2017-07-30T05:22:49.878Z,21.30
2017-07-30T05:25:17.330Z,21.40
2017-07-30T05:27:44.802Z,21.60
2017-07-30T05:30:12.249Z,21.80
2017-07-30T05:32:39.705Z,21.90
2017-07-30T05:35:07.170Z,22.50
2017-07-30T05:37:34.619Z,23.90
2017-07-30T05:40:03.507Z,26.20
2017-07-30T05:42:30.969Z,28.60
2017-07-30T05:44:58.415Z,30.60
2017-07-30T05:47:25.866Z,32.30
2017-07-30T05:49:53.335Z,33.80
2017-07-30T05:52:20.789Z,35.00
2017-07-30T05:54:48.273Z,34.60
2017-07-30T05:57:15.729Z,35.00
2017-07-30T05:59:43.177Z,34.10
2017-07-30T06:02:10.635Z,33.20
2017-07-30T06:04:38.088Z,32.30
2017-07-30T06:07:05.550Z,31.30
2017-07-30T06:09:33.001Z,31.00
2017-07-30T06:12:00.461Z,31.10
2017-07-30T06:14:27.914Z,31.50
2017-07-30T06:16:55.389Z,31.70
2017-07-30T06:19:22.841Z,32.50
2017-07-30T06:21:50.293Z,34.70
2017-07-30T06:24:17.747Z,35.90
2017-07-30T06:26:45.201Z,37.30
2017-07-30T06:29:12.659Z,36.00
2017-07-30T06:31:40.106Z,35.50
2017-07-30T06:34:07.573Z,35.10
2017-07-30T06:36:35.041Z,36.60
2017-07-30T06:39:02.503Z,36.90
2017-07-30T06:41:29.945Z,37.40
2017-07-30T06:43:57.405Z,35.80
2017-07-30T06:46:24.853Z,33.40
2017-07-30T06:48:52.422Z,31.00
2017-07-30T06:51:19.865Z,29.30
2017-07-30T06:53:47.433Z,28.50
2017-07-30T06:56:14.889Z,28.00
2017-07-30T06:58:42.451Z,27.50
2017-07-30T07:01:09.898Z,27.30
2017-07-30T07:03:37.461Z,27.60
2017-07-30T07:06:05.025Z,27.80
2017-07-30T07:08:32.588Z,27.90
2017-07-30T07:11:00.037Z,27.80
2017-07-30T07:13:27.598Z,27.40
2017-07-30T07:15:55.045Z,27.40
2017-07-30T07:18:22.515Z,27.10
2017-07-30T07:20:49.974Z,27.10
2017-07-30T07:23:17.421Z,27.40
2017-07-30T07:25:44.985Z,27.50
2017-07-30T07:28:12.437Z,27.40
2017-07-30T07:30:39.898Z,27.60
2017-07-30T07:33:07.347Z,27.40
2017-07-30T07:35:34.813Z,27.50
2017-07-30T07:38:02.266Z,27.40
2017-07-30T07:40:29.725Z,27.40
2017-07-30T07:42:57.168Z,27.60
2017-07-30T07:45:24.636Z,27.70
2017-07-30T07:47:52.073Z,27.70
2017-07-30T07:50:19.525Z,27.80
2017-07-30T07:52:46.999Z,27.80
2017-07-30T07:55:14.454Z,27.60
2017-07-30T07:57:42.014Z,27.40
2017-07-30T08:00:09.457Z,27.20
2017-07-30T08:02:37.015Z,27.20
2017-07-30T08:05:04.465Z,27.20
2017-07-30T08:07:31.924Z,27.10
2017-07-30T08:09:59.403Z,27.10
2017-07-30T08:12:26.954Z,26.90
2017-07-30T08:14:54.397Z,26.90
2017-07-30T08:17:21.853Z,26.90
2017-07-30T08:19:49.338Z,26.90
2017-07-30T08:22:16.794Z,27.00
2017-07-30T08:24:46.576Z,27.10
2017-07-30T08:27:14.021Z,27.20
2017-07-30T08:29:41.474Z,27.20
2017-07-30T08:32:08.936Z,27.40
2017-07-30T08:34:36.385Z,27.40
2017-07-30T08:37:03.838Z,27.20
2017-07-30T08:39:31.285Z,27.30
2017-07-30T08:41:58.746Z,27.50
2017-07-30T08:44:26.189Z,27.40
2017-07-30T08:46:53.693Z,27.40
2017-07-30T08:49:21.151Z,27.60
2017-07-30T08:51:48.601Z,27.60
2017-07-30T08:54:16.049Z,27.60
2017-07-30T08:56:43.501Z,27.50
2017-07-30T08:59:10.969Z,27.50
2017-07-30T09:01:38.438Z,27.50
2017-07-30T09:04:05.993Z,27.60
2017-07-30T09:06:33.450Z,27.60
2017-07-30T09:09:00.909Z,27.70
2017-07-30T09:11:28.355Z,27.40
2017-07-30T09:13:55.813Z,27.30
2017-07-30T09:16:23.263Z,27.40
2017-07-30T09:18:50.748Z,27.70
2017-07-30T09:21:18.204Z,27.70
2017-07-30T09:23:45.657Z,27.90
2017-07-30T09:26:13.116Z,27.90
2017-07-30T09:28:40.573Z,28.00
2017-07-30T09:31:08.029Z,28.00
2017-07-30T09:33:35.484Z,28.20
2017-07-30T09:36:02.945Z,28.40
2017-07-30T09:38:30.401Z,28.20
2017-07-30T09:40:57.950Z,28.10
2017-07-30T09:43:25.509Z,28.10
2017-07-30T09:45:52.956Z,28.10
2017-07-30T09:48:20.408Z,28.30
2017-07-30T09:50:47.865Z,28.50
2017-07-30T09:53:15.317Z,28.40
2017-07-30T09:55:42.889Z,28.40
2017-07-30T09:58:10.342Z,28.30
2017-07-30T10:00:37.798Z,28.20
2017-07-30T10:03:05.251Z,28.50
2017-07-30T10:05:32.706Z,28.70
2017-07-30T10:08:00.173Z,28.80
2017-07-30T10:10:27.728Z,28.90
2017-07-30T10:12:55.177Z,28.80
2017-07-30T10:15:22.621Z,28.90
2017-07-30T10:17:50.077Z,29.30
2017-07-30T10:20:17.559Z,29.50
2017-07-30T10:22:45.013Z,29.50
2017-07-30T10:25:12.470Z,29.30
2017-07-30T10:27:39.933Z,29.50
2017-07-30T10:30:07.385Z,29.50
2017-07-30T10:32:34.847Z,29.30
2017-07-30T10:35:02.297Z,29.30
2017-07-30T10:37:29.838Z,28.90
2017-07-30T10:39:57.288Z,28.90
2017-07-30T10:42:24.741Z,29.00
2017-07-30T10:44:52.213Z,28.90
2017-07-30T10:47:19.774Z,29.10
2017-07-30T10:49:47.221Z,29.40
2017-07-30T10:52:14.676Z,29.40
2017-07-30T10:54:42.130Z,29.20
2017-07-30T10:57:09.601Z,29.20
2017-07-30T10:59:37.157Z,29.20
2017-07-30T11:02:04.601Z,29.00
2017-07-30T11:04:32.059Z,29.10
2017-07-30T11:06:59.496Z,29.30
2017-07-30T11:09:26.969Z,29.30
2017-07-30T11:11:54.420Z,29.30
2017-07-30T11:14:21.885Z,29.60
2017-07-30T11:16:49.361Z,29.90
2017-07-30T11:19:16.827Z,29.90
2017-07-30T11:21:44.284Z,29.60
2017-07-30T11:24:11.736Z,29.60
2017-07-30T11:26:39.198Z,29.60
2017-07-30T11:29:07.437Z,29.40
2017-07-30T11:31:34.884Z,29.40
2017-07-30T11:34:02.374Z,29.50
2017-07-30T11:36:29.835Z,29.50
2017-07-30T11:38:57.288Z,29.90
2017-07-30T11:41:24.750Z,30.00
2017-07-30T11:43:52.307Z,29.80
2017-07-30T11:46:19.759Z,29.80
2017-07-30T11:48:47.214Z,29.50
2017-07-30T11:51:14.685Z,29.10
2017-07-30T11:53:42.918Z,28.60
2017-07-30T11:56:10.375Z,28.60
2017-07-30T11:58:37.857Z,28.60
2017-07-30T12:01:05.322Z,28.60
2017-07-30T12:03:32.772Z,28.50
2017-07-30T12:06:00.245Z,28.40
2017-07-30T12:08:27.688Z,28.50
2017-07-30T12:10:55.145Z,28.70
2017-07-30T12:13:22.602Z,28.50
2017-07-30T12:15:50.058Z,28.40
2017-07-30T12:18:17.501Z,28.30
2017-07-30T12:20:45.059Z,28.30
2017-07-30T12:23:12.514Z,28.40
2017-07-30T12:25:39.968Z,28.60
2017-07-30T12:28:07.418Z,29.00
2017-07-30T12:30:34.894Z,28.90
2017-07-30T12:33:02.354Z,29.20
2017-07-30T12:35:29.805Z,29.40
2017-07-30T12:37:57.270Z,29.20
2017-07-30T12:40:24.726Z,29.00
2017-07-30T12:42:52.217Z,29.10
2017-07-30T12:45:20.453Z,29.40
2017-07-30T12:47:47.908Z,29.40
2017-07-30T12:50:15.369Z,29.70
2017-07-30T12:52:42.826Z,29.60
2017-07-30T12:55:10.289Z,29.20
2017-07-30T12:57:37.754Z,28.80
2017-07-30T13:00:05.207Z,28.80
2017-07-30T13:02:32.660Z,28.80
2017-07-30T13:05:00.886Z,28.40
2017-07-30T13:07:28.377Z,28.40
2017-07-30T13:09:55.833Z,28.20
2017-07-30T13:12:23.300Z,27.80
2017-07-30T13:14:50.766Z,27.60
2017-07-30T13:17:19.030Z,27.50
2017-07-30T13:19:46.490Z,27.40
2017-07-30T13:22:13.942Z,27.50
2017-07-30T13:24:42.217Z,27.60
2017-07-30T13:27:09.762Z,27.60
2017-07-30T13:29:37.213Z,27.40
2017-07-30T13:32:04.654Z,27.30
2017-07-30T13:34:32.134Z,27.20
2017-07-30T13:36:59.582Z,27.10
2017-07-30T13:39:27.036Z,27.00
2017-07-30T13:41:54.490Z,26.80
2017-07-30T13:44:21.964Z,26.60
2017-07-30T13:46:49.405Z,26.70
2017-07-30T13:49:16.865Z,27.00
2017-07-30T13:51:44.330Z,26.80
2017-07-30T13:54:11.793Z,27.00
2017-07-30T13:56:40.749Z,26.90
2017-07-30T13:59:08.195Z,26.80
2017-07-30T14:01:35.651Z,26.80
2017-07-30T14:04:03.094Z,26.90
2017-07-30T14:06:30.554Z,27.10
2017-07-30T14:08:57.994Z,26.80
2017-07-30T14:11:25.457Z,26.50
2017-07-30T14:13:52.897Z,26.40
2017-07-30T14:16:21.122Z,26.60
2017-07-30T14:18:48.569Z,26.60
2017-07-30T14:21:16.021Z,26.70
2017-07-30T14:23:43.478Z,26.90
2017-07-30T14:26:10.939Z,26.80
2017-07-30T14:28:38.380Z,26.80
2017-07-30T14:31:05.834Z,26.80
2017-07-30T14:33:33.341Z,26.80
2017-07-30T14:36:00.789Z,26.80
2017-07-30T14:38:28.235Z,26.90
2017-07-30T14:40:55.676Z,27.10
2017-07-30T14:43:23.153Z,27.10
2017-07-30T14:45:50.606Z,26.90
2017-07-30T14:48:19.107Z,27.10
2017-07-30T14:50:46.555Z,26.80
2017-07-30T14:53:14.123Z,26.70
2017-07-30T14:55:41.577Z,26.60
2017-07-30T14:58:09.046Z,26.90
2017-07-30T15:00:36.494Z,27.30
2017-07-30T15:03:03.941Z,27.50
2017-07-30T15:05:31.394Z,27.40
2017-07-30T15:07:58.850Z,27.20
2017-07-30T15:10:26.297Z,26.90
2017-07-30T15:12:53.753Z,26.70
2017-07-30T15:15:21.202Z,26.80
2017-07-30T15:17:48.776Z,26.90
2017-07-30T15:20:16.338Z,27.00
2017-07-30T15:22:43.893Z,27.30
2017-07-30T15:25:11.345Z,27.50
2017-07-30T15:27:38.798Z,27.50
2017-07-30T15:30:06.259Z,27.80
2017-07-30T15:32:33.713Z,28.20
2017-07-30T15:35:01.175Z,28.40
2017-07-30T15:37:28.630Z,28.70
2017-07-30T15:39:56.199Z,28.90
2017-07-30T15:42:23.649Z,28.90
2017-07-30T15:44:51.093Z,29.30
2017-07-30T15:47:18.547Z,29.30
2017-07-30T15:49:46.005Z,28.70
2017-07-30T15:52:13.453Z,28.50
2017-07-30T15:54:40.914Z,28.50
2017-07-30T15:57:08.912Z,28.50
2017-07-30T15:59:36.365Z,28.20
2017-07-30T16:02:03.825Z,28.10
2017-07-30T16:04:32.258Z,28.10
2017-07-30T16:06:59.710Z,28.00
2017-07-30T16:09:27.157Z,28.10
2017-07-30T16:11:54.626Z,28.10
2017-07-30T16:14:22.069Z,27.90
2017-07-30T16:16:50.202Z,28.10
2017-07-30T16:19:17.749Z,28.30
2017-07-30T16:21:45.205Z,28.10
2017-07-30T16:24:12.661Z,28.20
2017-07-30T16:26:40.210Z,28.20
2017-07-30T16:29:07.670Z,28.30
2017-07-30T16:31:35.129Z,28.50
2017-07-30T16:34:02.582Z,28.20
2017-07-30T16:36:31.010Z,28.10
2017-07-30T16:38:58.452Z,28.00
2017-07-30T16:41:27.721Z,28.00
2017-07-30T16:43:55.169Z,28.00
2017-07-30T16:46:22.634Z,27.90
2017-07-30T16:48:50.078Z,27.90
2017-07-30T16:51:17.516Z,27.90
2017-07-30T16:53:44.988Z,28.00
2017-07-30T16:56:12.435Z,27.80
2017-07-30T16:58:39.897Z,27.80
2017-07-30T17:01:07.356Z,27.80
2017-07-30T17:03:35.797Z,27.80
2017-07-30T17:06:03.254Z,27.70
2017-07-30T17:08:30.725Z,27.50
2017-07-30T17:10:58.172Z,27.10
2017-07-30T17:13:25.633Z,26.90
2017-07-30T17:15:53.089Z,26.90
2017-07-30T17:18:22.138Z,26.90
2017-07-30T17:20:50.364Z,26.80
2017-07-30T17:23:17.818Z,26.70
2017-07-30T17:25:45.294Z,26.60
2017-07-30T17:28:12.857Z,26.40
2017-07-30T17:30:40.308Z,26.10
2017-07-30T17:33:07.780Z,25.90
2017-07-30T17:35:35.249Z,25.80
2017-07-30T17:38:03.629Z,25.70
2017-07-30T17:40:31.895Z,25.50
2017-07-30T17:42:59.338Z,25.50
2017-07-30T17:45:26.832Z,25.40
2017-07-30T17:47:55.084Z,25.30
2017-07-30T17:50:22.547Z,25.20
2017-07-30T17:52:50.001Z,25.20
2017-07-30T17:55:17.458Z,25.20
2017-07-30T17:57:44.913Z,25.20
2017-07-30T18:00:12.393Z,25.10
2017-07-30T18:02:40.615Z,25.00
2017-07-30T18:05:08.079Z,25.00
2017-07-30T18:07:35.551Z,25.00
2017-07-30T18:10:03.020Z,25.00
2017-07-30T18:12:31.260Z,25.30
2017-07-30T18:14:58.726Z,25.30
2017-07-30T18:17:26.186Z,25.40
2017-07-30T18:19:53.673Z,25.40
2017-07-30T18:22:21.180Z,25.40
2017-07-30T18:24:48.728Z,25.30
2017-07-30T18:27:16.175Z,25.30
2017-07-30T18:29:43.675Z,25.20
2017-07-30T18:32:11.118Z,25.10
2017-07-30T18:34:38.572Z,25.00
2017-07-30T18:37:06.137Z,25.00
2017-07-30T18:39:33.692Z,25.00
2017-07-30T18:42:01.249Z,25.00
2017-07-30T18:44:28.702Z,24.90
2017-07-30T18:46:56.155Z,24.80
2017-07-30T18:49:23.658Z,24.80
2017-07-30T18:51:54.261Z,24.60
2017-07-30T18:54:21.739Z,24.60
2017-07-30T18:56:49.216Z,24.60
2017-07-30T18:59:16.713Z,24.50
2017-07-30T19:01:44.309Z,24.40
2017-07-30T19:04:12.550Z,23.90
2017-07-30T19:06:40.628Z,23.90
2017-07-30T19:09:08.083Z,23.70
2017-07-30T19:11:35.542Z,23.60
2017-07-30T19:14:03.093Z,23.50
2017-07-30T19:16:30.706Z,23.40
2017-07-30T19:18:58.166Z,23.30
2017-07-30T19:21:25.606Z,23.20
2017-07-30T19:23:53.831Z,22.90
2017-07-30T19:26:21.289Z,22.90
2017-07-30T19:28:48.857Z,22.90
2017-07-30T19:31:16.310Z,22.80
2017-07-30T19:33:43.765Z,22.80
2017-07-30T19:36:11.295Z,22.80
2017-07-30T19:38:38.891Z,22.70
2017-07-30T19:41:06.337Z,22.60
2017-07-30T19:43:33.816Z,22.60
2017-07-30T19:46:01.278Z,22.50
2017-07-30T19:48:28.826Z,22.60
2017-07-30T19:50:56.298Z,22.50
2017-07-30T19:53:23.745Z,22.50
2017-07-30T19:55:51.194Z,22.50
2017-07-30T19:58:18.654Z,22.60
2017-07-30T20:00:46.109Z,22.60
2017-07-30T20:03:13.657Z,22.70
2017-07-30T20:05:41.113Z,22.70
2017-07-30T20:08:08.671Z,22.60
2017-07-30T20:10:36.126Z,22.70
2017-07-30T20:13:03.570Z,22.60
2017-07-30T20:15:31.031Z,22.70
2017-07-30T20:17:58.484Z,22.60
2017-07-30T20:20:25.946Z,22.60
2017-07-30T20:22:53.415Z,22.60
2017-07-30T20:25:20.960Z,22.60
2017-07-30T20:27:48.425Z,22.60
2017-07-30T20:30:15.889Z,22.50
2017-07-30T20:32:43.330Z,22.50
2017-07-30T20:35:10.777Z,22.40
2017-07-30T20:37:38.246Z,22.40
2017-07-30T20:40:05.809Z,22.40
2017-07-30T20:42:33.274Z,22.50
2017-07-30T20:45:00.732Z,22.60
2017-07-30T20:47:28.184Z,22.60
2017-07-30T20:49:55.633Z,22.60
2017-07-30T20:52:23.081Z,22.50
2017-07-30T20:54:50.650Z,22.40
2017-07-30T20:57:18.116Z,22.40
2017-07-30T20:59:45.673Z,22.30
2017-07-30T21:02:13.137Z,22.30
2017-07-30T21:04:40.673Z,22.20
2017-07-30T21:07:08.130Z,22.20
2017-07-30T21:09:35.680Z,22.30
2017-07-30T21:12:03.138Z,22.30
2017-07-30T21:14:30.585Z,22.30
2017-07-30T21:16:58.053Z,22.30
2017-07-30T21:19:25.610Z,22.30
2017-07-30T21:21:53.053Z,22.30
2017-07-30T21:24:20.521Z,22.20
2017-07-30T21:26:47.970Z,22.30
2017-07-30T21:29:15.426Z,22.20
2017-07-30T21:31:42.869Z,22.10
2017-07-30T21:34:10.330Z,22.30
2017-07-30T21:36:37.777Z,22.30
2017-07-30T21:39:05.265Z,22.20
2017-07-30T21:41:32.714Z,22.00
2017-07-30T21:44:00.172Z,21.90
2017-07-30T21:46:27.621Z,21.80
2017-07-30T21:48:55.081Z,21.80
2017-07-30T21:51:22.525Z,21.70
2017-07-30T21:53:49.974Z,21.70
2017-07-30T21:56:17.426Z,21.80
2017-07-30T21:58:44.893Z,21.70
2017-07-30T22:02:37.157Z,21.80
2017-07-30T22:05:05.436Z,21.70
2017-07-30T22:07:32.872Z,21.70
2017-07-30T22:10:00.329Z,21.70
2017-07-30T22:12:27.789Z,21.70
2017-07-30T22:14:55.253Z,21.70
2017-07-30T22:17:22.698Z,21.70
2017-07-30T22:19:50.997Z,21.60
2017-07-30T22:22:18.459Z,21.50
2017-07-30T22:24:45.913Z,21.50
2017-07-30T22:27:13.357Z,21.40
2017-07-30T22:29:40.801Z,21.40
2017-07-30T22:32:08.286Z,21.40
2017-07-30T22:34:35.722Z,21.50
2017-07-30T22:37:03.286Z,21.60
2017-07-30T22:39:30.733Z,21.60
2017-07-30T22:41:58.306Z,21.60
2017-07-30T22:44:25.745Z,21.70
2017-07-30T22:46:53.198Z,21.70
2017-07-30T22:49:20.641Z,21.60
2017-07-30T22:51:48.108Z,21.60
2017-07-30T22:54:15.550Z,21.50
2017-07-30T22:56:43.046Z,21.50
2017-07-30T22:59:10.494Z,21.50
2017-07-30T23:01:37.945Z,21.50
2017-07-30T23:04:05.404Z,21.50
2017-07-30T23:06:32.873Z,21.50
2017-07-30T23:09:00.317Z,21.40
2017-07-30T23:11:27.881Z,21.40
2017-07-30T23:13:55.336Z,21.30
2017-07-30T23:16:22.794Z,21.30
2017-07-30T23:18:50.253Z,21.30
2017-07-30T23:21:17.718Z,20.90
2017-07-30T23:23:45.173Z,20.70
2017-07-30T23:26:12.625Z,20.50
2017-07-30T23:28:40.180Z,20.40
2017-07-30T23:31:07.746Z,20.30
2017-07-30T23:33:35.198Z,20.30
2017-07-30T23:36:02.665Z,20.30
2017-07-30T23:38:30.206Z,20.20
2017-07-30T23:40:57.767Z,20.30
2017-07-30T23:43:25.225Z,20.30
2017-07-30T23:45:52.684Z,20.20
2017-07-30T23:48:20.138Z,20.20
2017-07-30T23:50:47.582Z,20.10
2017-07-30T23:53:15.053Z,20.00
2017-07-30T23:55:42.499Z,20.00
2017-07-30T23:58:09.950Z,20.00
